createdAt,value
2022-09-15T00:00:57.006Z,77.79
2022-09-15T00:03:24.399Z,77.43
2022-09-15T00:05:54.292Z,77.51
2022-09-15T00:08:22.041Z,77.95
2022-09-15T00:10:53.941Z,77.78
2022-09-15T00:13:23.648Z,77.34
2022-09-15T00:15:50.600Z,77.46
2022-09-15T00:18:17.586Z,77.38
2022-09-15T00:20:45.517Z,76.93
2022-09-15T00:23:13.319Z,77.21
2022-09-15T00:25:51.474Z,77.80
2022-09-15T00:28:21.827Z,78.04
2022-09-15T00:30:51.229Z,78.72
2022-09-15T00:33:18.908Z,78.44
2022-09-15T00:35:50.485Z,78.84
2022-09-15T00:38:20.699Z,79.60
2022-09-15T00:40:55.520Z,80.50
2022-09-15T00:43:55.391Z,80.63
2022-09-15T00:46:25.081Z,80.45
2022-09-15T00:49:00.404Z,78.04
2022-09-15T00:51:52.102Z,79.06
2022-09-15T00:54:29.252Z,78.85
2022-09-15T00:57:00.228Z,78.01
2022-09-15T00:59:31.662Z,77.56
2022-09-15T01:02:15.929Z,77.14
2022-09-15T01:04:42.975Z,76.46
2022-09-15T01:07:15.241Z,74.96
2022-09-15T01:09:49.801Z,75.32
2022-09-15T01:12:17.042Z,75.35
2022-09-15T01:14:43.613Z,75.79
2022-09-15T01:17:37.954Z,76.34
2022-09-15T01:20:40.285Z,75.92
2022-09-15T01:23:27.172Z,76.31
2022-09-15T01:26:27.471Z,75.75
2022-09-15T01:29:30.998Z,75.54
2022-09-15T01:32:24.160Z,75.01
2022-09-15T01:35:02.739Z,75.30
2022-09-15T01:37:38.225Z,75.69
2022-09-15T01:40:06.416Z,74.49
2022-09-15T01:42:34.361Z,73.88
2022-09-15T01:45:07.068Z,71.86
2022-09-15T01:47:35.764Z,73.13
2022-09-15T01:50:22.451Z,72.17
2022-09-15T01:52:55.060Z,72.11
2022-09-15T01:55:36.922Z,72.95
2022-09-15T01:58:03.777Z,70.94
2022-09-15T02:00:35.371Z,70.86
2022-09-15T02:03:17.192Z,70.77
2022-09-15T02:05:51.178Z,71.67
2022-09-15T02:08:28.692Z,71.48
2022-09-15T02:11:03.263Z,72.24
2022-09-15T02:13:45.750Z,70.81
2022-09-15T02:16:20.014Z,70.85
2022-09-15T02:19:31.572Z,70.78
2022-09-15T02:22:10.723Z,70.87
2022-09-15T02:24:44.091Z,71.20
2022-09-15T02:27:21.250Z,71.15
2022-09-15T02:29:50.064Z,70.82
2022-09-15T02:32:23.193Z,71.48
2022-09-15T02:34:51.527Z,71.70
2022-09-15T02:37:24.267Z,70.91
2022-09-15T02:39:54.878Z,71.32
2022-09-15T02:42:29.745Z,69.85
2022-09-15T02:44:56.749Z,69.82
2022-09-15T02:47:24.606Z,69.98
2022-09-15T02:49:51.674Z,70.25
2022-09-15T02:52:20.827Z,70.24
2022-09-15T02:54:47.551Z,69.84
2022-09-15T02:57:14.488Z,70.40
2022-09-15T02:59:59.695Z,70.50
2022-09-15T03:02:26.740Z,70.41
2022-09-15T03:04:53.219Z,71.02
2022-09-15T03:07:22.571Z,71.78
2022-09-15T03:09:49.675Z,71.90
2022-09-15T03:12:16.153Z,72.41
2022-09-15T03:14:42.873Z,72.11
2022-09-15T03:17:09.439Z,72.30
2022-09-15T03:19:35.953Z,72.66
2022-09-15T03:22:02.376Z,72.19
2022-09-15T03:24:28.849Z,71.14
2022-09-15T03:26:55.387Z,70.17
2022-09-15T03:29:28.309Z,70.02
2022-09-15T03:31:54.837Z,69.90
2022-09-15T03:34:21.382Z,69.00
2022-09-15T03:36:47.769Z,69.16
2022-09-15T03:39:14.643Z,66.19
2022-09-15T03:41:41.178Z,67.52
2022-09-15T03:44:07.644Z,68.01
2022-09-15T03:46:34.119Z,68.08
2022-09-15T03:49:00.606Z,67.45
2022-09-15T03:51:27.345Z,67.39
2022-09-15T03:53:55.550Z,68.60
2022-09-15T03:56:24.013Z,67.90
2022-09-15T03:58:51.334Z,68.37
2022-09-15T04:01:21.372Z,67.55
2022-09-15T04:03:51.030Z,67.96
2022-09-15T04:06:22.941Z,67.64
2022-09-15T04:08:53.170Z,68.12
2022-09-15T04:11:22.084Z,67.72
2022-09-15T04:13:49.126Z,67.89
2022-09-15T04:16:23.182Z,67.92
2022-09-15T04:18:53.000Z,66.96
2022-09-15T04:21:22.889Z,66.55
2022-09-15T04:23:59.030Z,66.73
2022-09-15T04:26:35.060Z,67.55
2022-09-15T04:29:04.437Z,68.21
2022-09-15T04:31:32.195Z,67.85
2022-09-15T04:33:59.516Z,68.17
2022-09-15T04:36:28.332Z,68.06
2022-09-15T04:38:56.012Z,66.97
2022-09-15T04:41:26.660Z,66.81
2022-09-15T04:43:53.971Z,68.02
2022-09-15T04:46:21.213Z,68.28
2022-09-15T04:48:51.153Z,68.30
2022-09-15T04:51:21.390Z,68.93
2022-09-15T04:53:48.877Z,69.86
2022-09-15T04:56:18.001Z,70.21
2022-09-15T04:58:50.727Z,70.39
2022-09-15T05:01:20.251Z,69.97
2022-09-15T05:03:47.211Z,68.86
2022-09-15T05:06:17.097Z,67.11
2022-09-15T05:08:47.678Z,68.43
2022-09-15T05:11:14.214Z,69.10
2022-09-15T05:13:41.140Z,70.63
2022-09-15T05:16:12.111Z,71.35
2022-09-15T05:18:39.700Z,69.13
2022-09-15T05:21:07.478Z,68.93
2022-09-15T05:23:35.392Z,68.51
2022-09-15T05:26:03.358Z,70.34
2022-09-15T05:28:32.714Z,69.97
2022-09-15T05:30:59.556Z,69.88
2022-09-15T05:33:26.078Z,70.78
2022-09-15T05:35:57.882Z,70.42
2022-09-15T05:38:25.646Z,70.20
2022-09-15T05:40:52.488Z,69.62
2022-09-15T05:43:19.330Z,69.90
2022-09-15T05:45:54.796Z,70.54
2022-09-15T05:48:21.521Z,69.99
2022-09-15T05:50:53.755Z,69.70
2022-09-15T05:53:20.734Z,69.72
2022-09-15T05:55:47.573Z,70.79
2022-09-15T05:58:14.881Z,70.91
2022-09-15T06:00:41.730Z,70.09
2022-09-15T06:03:14.655Z,69.45
2022-09-15T06:05:41.632Z,69.74
2022-09-15T06:08:08.292Z,69.51
2022-09-15T06:10:34.838Z,69.00
2022-09-15T06:13:01.551Z,69.64
2022-09-15T06:15:28.159Z,72.66
2022-09-15T06:17:54.635Z,76.12
2022-09-15T06:20:26.818Z,76.55
2022-09-15T06:22:54.039Z,75.15
2022-09-15T06:25:20.630Z,75.70
2022-09-15T06:27:52.470Z,75.81
2022-09-15T06:30:19.198Z,76.10
2022-09-15T06:32:48.233Z,76.01
2022-09-15T06:35:15.620Z,74.79
2022-09-15T06:37:42.061Z,72.14
2022-09-15T06:40:09.124Z,74.00
2022-09-15T06:42:35.869Z,73.81
2022-09-15T06:45:02.939Z,74.44
2022-09-15T06:47:33.800Z,73.88
2022-09-15T06:50:00.794Z,74.50
2022-09-15T06:52:27.521Z,73.54
2022-09-15T06:54:53.963Z,73.56
2022-09-15T06:57:20.490Z,73.80
2022-09-15T06:59:46.954Z,73.59
2022-09-15T07:02:13.755Z,74.06
2022-09-15T07:04:40.499Z,73.78
2022-09-15T07:07:06.891Z,72.14
2022-09-15T07:09:33.420Z,71.46
2022-09-15T07:12:00.038Z,72.03
2022-09-15T07:14:26.480Z,71.51
2022-09-15T07:16:52.910Z,70.99
2022-09-15T07:19:22.300Z,71.42
2022-09-15T07:21:48.926Z,71.50
2022-09-15T07:24:15.704Z,71.87
2022-09-15T07:26:42.406Z,70.74
2022-09-15T07:29:09.658Z,70.83
2022-09-15T07:31:38.021Z,71.56
2022-09-15T07:34:05.298Z,71.13
2022-09-15T07:36:31.977Z,71.98
2022-09-15T07:38:58.572Z,70.58
2022-09-15T07:41:27.297Z,69.59
2022-09-15T07:43:55.892Z,69.80
2022-09-15T07:46:23.925Z,69.45
2022-09-15T07:48:51.314Z,69.91
2022-09-15T07:51:18.967Z,68.98
2022-09-15T07:53:47.497Z,69.24
2022-09-15T07:56:15.426Z,69.10
2022-09-15T07:58:41.973Z,67.98
2022-09-15T08:01:11.506Z,67.86
2022-09-15T08:03:46.755Z,68.07
2022-09-15T08:06:13.783Z,68.13
2022-09-15T08:08:41.259Z,68.25
2022-09-15T08:11:18.383Z,69.25
2022-09-15T08:13:51.030Z,67.98
2022-09-15T08:16:20.210Z,67.76
2022-09-15T08:18:47.016Z,69.14
2022-09-15T08:21:16.046Z,67.40
2022-09-15T08:23:43.005Z,67.46
2022-09-15T08:26:14.320Z,67.06
2022-09-15T08:28:42.042Z,67.20
2022-09-15T08:31:11.267Z,67.34
2022-09-15T08:33:43.213Z,67.76
2022-09-15T08:36:11.917Z,69.09
2022-09-15T08:38:40.505Z,68.29
2022-09-15T08:41:14.771Z,67.94
2022-09-15T08:43:47.334Z,68.22
2022-09-15T08:46:21.786Z,67.69
2022-09-15T08:49:03.620Z,68.22
2022-09-15T08:51:43.283Z,70.66
2022-09-15T08:54:16.641Z,71.24
2022-09-15T08:56:43.964Z,71.72
2022-09-15T08:59:15.952Z,72.34
2022-09-15T09:02:20.918Z,72.95
2022-09-15T09:05:15.205Z,73.28
2022-09-15T09:08:00.954Z,73.67
2022-09-15T09:10:52.321Z,72.83
2022-09-15T09:13:32.054Z,71.47
2022-09-15T09:16:29.073Z,72.36
2022-09-15T09:19:22.904Z,70.58
2022-09-15T09:22:01.784Z,70.51
2022-09-15T09:24:40.939Z,70.65
2022-09-15T09:27:24.326Z,71.41
2022-09-15T09:30:06.891Z,68.86
2022-09-15T09:32:45.356Z,67.81
2022-09-15T09:35:31.685Z,68.61
2022-09-15T09:37:59.967Z,70.31
2022-09-15T09:40:28.243Z,67.73
2022-09-15T09:42:54.862Z,67.97
2022-09-15T09:45:22.663Z,66.68
2022-09-15T09:47:52.573Z,65.79
2022-09-15T09:50:39.023Z,64.46
2022-09-15T09:53:32.880Z,63.57
2022-09-15T09:56:18.004Z,64.26
2022-09-15T09:58:45.153Z,60.49
2022-09-15T10:01:15.061Z,60.65
2022-09-15T10:03:43.266Z,60.18
2022-09-15T10:06:14.669Z,57.42
2022-09-15T10:08:59.781Z,59.20
2022-09-15T10:11:38.512Z,57.45
2022-09-15T10:14:05.028Z,58.21
2022-09-15T10:16:32.475Z,58.63
2022-09-15T10:18:59.288Z,58.08
2022-09-15T10:21:26.076Z,59.02
2022-09-15T10:23:52.496Z,59.81
2022-09-15T10:26:22.326Z,56.66
2022-09-15T10:29:12.412Z,57.30
2022-09-15T10:31:40.142Z,57.43
2022-09-15T10:34:25.652Z,57.25
2022-09-15T10:36:55.043Z,56.84
2022-09-15T10:39:34.209Z,56.56
2022-09-15T10:42:18.980Z,58.40
2022-09-15T10:45:00.015Z,55.04
2022-09-15T10:47:56.565Z,56.04
2022-09-15T10:50:26.625Z,53.30
2022-09-15T10:53:04.530Z,52.31
2022-09-15T10:55:51.701Z,56.49
2022-09-15T10:58:51.955Z,63.08
2022-09-15T11:01:28.221Z,62.22
2022-09-15T11:04:33.211Z,63.73
2022-09-15T11:07:21.389Z,63.37
2022-09-15T11:09:59.489Z,63.63
2022-09-15T11:12:31.684Z,63.70
2022-09-15T11:15:33.487Z,63.09
2022-09-15T11:18:27.642Z,64.20
2022-09-15T11:21:05.935Z,61.37
2022-09-15T11:23:55.973Z,62.12
2022-09-15T11:26:30.369Z,61.64
2022-09-15T11:29:07.233Z,61.88
2022-09-15T11:31:40.993Z,61.36
2022-09-15T11:34:44.720Z,61.77
2022-09-15T11:37:17.361Z,62.59
2022-09-15T11:39:57.083Z,62.81
2022-09-15T11:42:34.304Z,62.12
2022-09-15T11:45:03.979Z,63.97
2022-09-15T11:47:44.966Z,64.44
2022-09-15T11:50:11.356Z,64.94
2022-09-15T11:52:56.492Z,64.76
2022-09-15T11:55:39.038Z,61.69
2022-09-15T11:58:21.984Z,58.92
2022-09-15T12:01:07.096Z,59.86
2022-09-15T12:03:56.281Z,57.00
2022-09-15T12:06:43.293Z,55.18
2022-09-15T12:09:16.096Z,52.89
2022-09-15T12:11:46.229Z,54.06
2022-09-15T12:14:34.787Z,52.34
2022-09-15T12:17:03.977Z,55.21
2022-09-15T12:19:33.527Z,55.09
2022-09-15T12:22:14.864Z,54.80
2022-09-15T12:24:51.098Z,54.38
2022-09-15T12:27:20.151Z,55.62
2022-09-15T12:29:55.165Z,55.48
2022-09-15T12:32:32.173Z,55.87
2022-09-15T12:35:17.653Z,55.70
2022-09-15T12:37:58.913Z,55.09
2022-09-15T12:40:36.095Z,54.52
2022-09-15T12:43:16.481Z,55.54
2022-09-15T12:45:53.525Z,54.80
2022-09-15T12:48:31.496Z,54.68
2022-09-15T12:51:10.280Z,55.73
2022-09-15T12:53:41.603Z,56.13
2022-09-15T12:56:24.350Z,55.08
2022-09-15T12:58:52.207Z,53.20
2022-09-15T13:01:19.842Z,54.40
2022-09-15T13:03:46.555Z,54.25
2022-09-15T13:06:18.151Z,53.79
2022-09-15T13:08:47.345Z,54.70
2022-09-15T13:11:38.746Z,52.25
2022-09-15T13:14:08.162Z,52.23
2022-09-15T13:17:03.002Z,54.88
2022-09-15T13:19:41.665Z,55.81
2022-09-15T13:22:11.322Z,58.52
2022-09-15T13:25:02.161Z,54.31
2022-09-15T13:28:03.052Z,53.24
2022-09-15T13:30:53.845Z,53.77
2022-09-15T13:40:25.396Z,57.30
2022-09-15T13:43:18.804Z,56.79
2022-09-15T13:46:27.434Z,60.49
2022-09-15T13:49:09.286Z,60.93
2022-09-15T13:51:39.453Z,61.01
2022-09-15T13:54:08.174Z,60.58
2022-09-15T13:56:39.504Z,59.67
2022-09-15T13:59:16.883Z,60.12
2022-09-15T14:01:44.541Z,58.98
2022-09-15T14:04:20.086Z,58.90
2022-09-15T14:06:50.353Z,66.89
2022-09-15T14:09:20.719Z,69.20
2022-09-15T14:12:00.025Z,71.97
2022-09-15T14:14:35.866Z,70.62
2022-09-15T14:17:02.821Z,72.64
2022-09-15T14:19:34.244Z,68.56
2022-09-15T14:22:20.074Z,70.10
2022-09-15T14:24:47.507Z,69.11
2022-09-15T14:27:24.348Z,68.20
2022-09-15T14:29:57.565Z,68.16
2022-09-15T14:32:26.618Z,67.32
2022-09-15T14:34:55.860Z,67.45
2022-09-15T14:37:28.483Z,68.28
2022-09-15T14:39:57.325Z,64.38
2022-09-15T14:42:30.745Z,64.88
2022-09-15T14:47:59.672Z,63.57
2022-09-15T14:50:30.334Z,64.29
2022-09-15T14:53:07.234Z,63.10
2022-09-15T14:55:45.260Z,63.20
2022-09-15T14:58:33.123Z,63.16
2022-09-15T15:01:30.272Z,64.02
2022-09-15T15:04:20.709Z,63.47
2022-09-15T15:07:00.036Z,64.17
2022-09-15T15:09:40.316Z,60.98
2022-09-15T15:12:23.679Z,60.01
2022-09-15T15:14:53.053Z,60.80
2022-09-15T15:17:42.021Z,61.84
2022-09-15T15:20:08.482Z,62.17
2022-09-15T15:22:39.210Z,63.44
2022-09-15T15:25:20.808Z,62.90
2022-09-15T15:28:00.489Z,61.79
2022-09-15T15:30:30.827Z,62.39
2022-09-15T15:32:57.660Z,64.60
2022-09-15T15:35:24.777Z,74.88
2022-09-15T15:38:15.099Z,77.67
2022-09-15T15:40:42.002Z,79.64
2022-09-15T15:43:27.028Z,80.17
2022-09-15T15:46:01.054Z,80.91
2022-09-15T15:48:35.254Z,78.08
2022-09-15T15:51:05.064Z,77.89
2022-09-15T15:53:31.812Z,77.90
2022-09-15T15:56:00.145Z,78.87
2022-09-15T15:58:27.153Z,78.46
2022-09-15T16:00:57.378Z,78.95
2022-09-15T16:03:25.024Z,77.61
2022-09-15T16:06:00.655Z,77.00
2022-09-15T16:08:31.049Z,76.63
2022-09-15T16:10:59.774Z,75.81
2022-09-15T16:13:26.436Z,76.84
2022-09-15T16:15:54.154Z,77.30
2022-09-15T16:18:21.338Z,77.22
2022-09-15T16:20:47.721Z,78.34
2022-09-15T16:23:20.097Z,79.74
2022-09-15T16:26:00.381Z,80.71
2022-09-15T16:28:26.863Z,79.60
2022-09-15T16:30:55.586Z,78.79
2022-09-15T16:33:22.160Z,79.78
2022-09-15T16:36:03.515Z,79.36
2022-09-15T16:38:30.049Z,80.15
2022-09-15T16:40:56.522Z,79.83
2022-09-15T16:43:23.433Z,78.89
2022-09-15T16:45:51.124Z,78.82
2022-09-15T16:48:20.537Z,79.57
2022-09-15T16:53:34.990Z,75.66
2022-09-15T16:56:01.836Z,76.50
2022-09-15T16:58:28.419Z,75.08
2022-09-15T17:00:55.035Z,74.82
2022-09-15T17:03:24.114Z,75.63
2022-09-15T17:05:52.991Z,74.30
2022-09-15T17:08:27.227Z,74.96
2022-09-15T17:10:56.400Z,72.77
2022-09-15T17:13:27.754Z,73.67
2022-09-15T17:15:57.530Z,73.73
2022-09-15T17:18:24.305Z,74.46
2022-09-15T17:20:51.301Z,75.04
2022-09-15T17:23:17.738Z,73.80
2022-09-15T17:25:49.025Z,72.63
2022-09-15T17:28:15.705Z,72.45
2022-09-15T17:30:42.603Z,72.06
2022-09-15T17:33:13.623Z,73.57
2022-09-15T17:35:40.319Z,73.69
2022-09-15T17:38:07.396Z,73.46
2022-09-15T17:40:35.688Z,74.77
2022-09-15T17:43:02.985Z,77.28
2022-09-15T17:45:36.305Z,78.29
2022-09-15T17:48:04.301Z,79.02
2022-09-15T17:50:32.179Z,77.80
2022-09-15T17:52:58.992Z,77.51
2022-09-15T17:55:31.827Z,77.20
2022-09-15T17:58:00.524Z,77.48
2022-09-15T18:00:30.338Z,78.27
2022-09-15T18:03:01.215Z,78.63
2022-09-15T18:05:37.650Z,78.45
2022-09-15T18:08:05.793Z,78.94
2022-09-15T18:10:35.704Z,78.65
2022-09-15T18:13:03.817Z,79.33
2022-09-15T18:15:31.171Z,79.24
2022-09-15T18:18:08.611Z,79.31
2022-09-15T18:20:37.340Z,80.01
2022-09-15T18:23:03.838Z,81.30
2022-09-15T18:25:36.924Z,81.81
2022-09-15T18:28:04.233Z,82.51
2022-09-15T18:30:33.949Z,82.71
2022-09-15T18:33:00.639Z,82.60
2022-09-15T18:35:27.079Z,82.76
2022-09-15T18:37:58.934Z,82.70
2022-09-15T18:40:27.285Z,83.46
2022-09-15T18:42:54.305Z,84.30
2022-09-15T18:45:22.113Z,83.96
2022-09-15T18:47:53.016Z,84.30
2022-09-15T18:50:24.287Z,83.88
2022-09-15T18:52:50.896Z,83.62
2022-09-15T18:55:20.197Z,83.96
2022-09-15T18:57:50.764Z,83.95
2022-09-15T19:00:22.519Z,83.86
2022-09-15T19:03:01.895Z,82.33
2022-09-15T19:05:33.355Z,82.72
2022-09-15T19:08:00.544Z,82.91
2022-09-15T19:10:27.195Z,83.85
2022-09-15T19:12:54.221Z,83.13
2022-09-15T19:15:23.696Z,82.39
2022-09-15T19:17:50.869Z,81.33
2022-09-15T19:20:21.102Z,82.55
2022-09-15T19:22:57.876Z,82.12
2022-09-15T19:25:24.606Z,81.03
2022-09-15T19:27:51.116Z,81.45
2022-09-15T19:30:17.699Z,81.12
2022-09-15T19:32:44.315Z,82.14
2022-09-15T19:35:11.318Z,83.01
2022-09-15T19:37:39.897Z,83.79
2022-09-15T19:40:09.686Z,83.93
2022-09-15T19:42:38.188Z,84.14
2022-09-15T19:45:05.331Z,84.99
2022-09-15T19:47:35.237Z,84.66
2022-09-15T19:50:02.126Z,84.88
2022-09-15T19:52:28.915Z,84.98
2022-09-15T19:54:55.857Z,83.76
2022-09-15T19:57:22.797Z,84.19
2022-09-15T19:59:53.218Z,85.22
2022-09-15T20:02:22.983Z,87.25
2022-09-15T20:04:52.971Z,88.18
2022-09-15T20:07:22.554Z,88.80
2022-09-15T20:09:52.095Z,88.59
2022-09-15T20:12:18.905Z,88.64
2022-09-15T20:14:46.022Z,88.26
2022-09-15T20:17:12.501Z,87.43
2022-09-15T20:19:39.026Z,87.46
2022-09-15T20:22:05.471Z,87.39
2022-09-15T20:24:34.250Z,86.83
2022-09-15T20:27:00.955Z,87.26
2022-09-15T20:29:27.470Z,87.98
2022-09-15T20:31:54.073Z,88.23
2022-09-15T20:34:20.515Z,87.84
2022-09-15T20:36:47.192Z,86.65
2022-09-15T20:39:15.918Z,87.09
2022-09-15T20:41:46.259Z,86.00
2022-09-15T20:44:13.213Z,85.44
2022-09-15T20:46:39.959Z,85.20
2022-09-15T20:49:07.118Z,86.53
2022-09-15T20:51:35.852Z,85.78
2022-09-15T20:54:06.104Z,85.34
2022-09-15T20:56:35.062Z,84.46
2022-09-15T20:59:02.569Z,84.46
2022-09-15T21:01:33.580Z,85.47
2022-09-15T21:04:00.099Z,83.80
2022-09-15T21:06:28.152Z,84.50
2022-09-15T21:08:55.651Z,84.64
2022-09-15T21:11:23.960Z,83.88
2022-09-15T21:13:50.704Z,84.76
2022-09-15T21:16:20.615Z,84.49
2022-09-15T21:18:50.605Z,86.30
2022-09-15T21:21:29.729Z,86.99
2022-09-15T21:24:03.554Z,87.40
2022-09-15T21:26:33.106Z,87.75
2022-09-15T21:28:59.789Z,88.87
2022-09-15T21:31:29.439Z,89.18
2022-09-15T21:33:56.587Z,89.19
2022-09-15T21:36:30.844Z,88.19
2022-09-15T21:38:58.891Z,88.10
2022-09-15T21:41:26.484Z,88.21
2022-09-15T21:43:54.960Z,87.35
2022-09-15T21:46:23.781Z,86.60
2022-09-15T21:48:50.321Z,85.25
2022-09-15T21:51:24.358Z,85.71
2022-09-15T21:53:53.455Z,84.64
2022-09-15T21:56:20.860Z,83.51
2022-09-15T21:58:47.503Z,84.59
2022-09-15T22:01:16.060Z,81.42
2022-09-15T22:03:42.995Z,83.85
2022-09-15T22:06:10.890Z,83.81
2022-09-15T22:08:40.802Z,84.49
2022-09-15T22:11:08.344Z,81.37
2022-09-15T22:13:40.653Z,82.60
2022-09-15T22:16:11.035Z,82.68
2022-09-15T22:18:39.825Z,81.68
2022-09-15T22:21:13.572Z,82.38
2022-09-15T22:23:40.514Z,81.70
2022-09-15T22:26:09.952Z,82.00
2022-09-15T22:28:36.422Z,82.39
2022-09-15T22:31:05.757Z,83.00
2022-09-15T22:33:32.490Z,83.42
2022-09-15T22:35:58.962Z,82.69
2022-09-15T22:38:28.945Z,81.71
2022-09-15T22:40:56.022Z,81.26
2022-09-15T22:43:23.114Z,82.66
2022-09-15T22:45:53.709Z,82.16
2022-09-15T22:48:20.186Z,81.97
2022-09-15T22:50:46.789Z,83.19
2022-09-15T22:53:13.284Z,82.49
2022-09-15T22:55:40.089Z,82.69
2022-09-15T22:58:07.547Z,82.60
2022-09-15T23:00:34.731Z,84.17
2022-09-15T23:03:01.179Z,86.74
2022-09-15T23:05:27.650Z,87.36
2022-09-15T23:07:54.225Z,88.98
2022-09-15T23:10:20.639Z,89.98
2022-09-15T23:12:47.138Z,89.71
2022-09-15T23:15:14.034Z,90.12
2022-09-15T23:17:40.557Z,90.51
2022-09-15T23:20:07.278Z,90.27
2022-09-15T23:22:33.750Z,90.34
2022-09-15T23:25:00.186Z,88.39
2022-09-15T23:27:26.702Z,88.64
2022-09-15T23:29:53.322Z,88.43
2022-09-15T23:32:20.026Z,88.92
2022-09-15T23:34:46.581Z,90.13
2022-09-15T23:37:13.034Z,90.54
2022-09-15T23:39:39.450Z,90.82
2022-09-15T23:42:06.394Z,91.80
2022-09-15T23:44:33.028Z,90.54
2022-09-15T23:47:00.394Z,90.69
2022-09-15T23:49:27.003Z,91.02
2022-09-15T23:51:53.464Z,90.37
2022-09-15T23:54:22.934Z,90.86
2022-09-15T23:56:52.440Z,91.33
2022-09-15T23:59:18.998Z,91.29
